sensor_id;sensor_type;location;lat;lon;timestamp;temperature;humidity
18934;DHT22;9599;53.706;10.384;2023-02-05T00:00:04;0.20;99.90
18934;DHT22;9599;53.706;10.384;2023-02-05T00:02:32;0.20;99.90
18934;DHT22;9599;53.706;10.384;2023-02-05T00:05:01;0.20;99.90
18934;DHT22;9599;53.706;10.384;2023-02-05T00:07:29;0.20;99.90
18934;DHT22;9599;53.706;10.384;2023-02-05T00:09:57;0.20;99.90
18934;DHT22;9599;53.706;10.384;2023-02-05T00:12:25;0.20;99.90
18934;DHT22;9599;53.706;10.384;2023-02-05T00:14:52;0.10;99.90
18934;DHT22;9599;53.706;10.384;2023-02-05T00:17:20;0.20;99.90
18934;DHT22;9599;53.706;10.384;2023-02-05T00:19:48;0.10;99.90
18934;DHT22;9599;53.706;10.384;2023-02-05T00:22:18;0.10;99.90
18934;DHT22;9599;53.706;10.384;2023-02-05T00:24:45;0.10;99.90
18934;DHT22;9599;53.706;10.384;2023-02-05T00:27:13;0.10;99.90
18934;DHT22;9599;53.706;10.384;2023-02-05T00:29:42;0.10;99.90
18934;DHT22;9599;53.706;10.384;2023-02-05T00:32:10;0.10;99.90
18934;DHT22;9599;53.706;10.384;2023-02-05T00:34:38;0.10;99.90
18934;DHT22;9599;53.706;10.384;2023-02-05T00:37:06;0.10;99.90
18934;DHT22;9599;53.706;10.384;2023-02-05T00:39:35;0.10;99.90
18934;DHT22;9599;53.706;10.384;2023-02-05T00:42:03;0.10;99.90
18934;DHT22;9599;53.706;10.384;2023-02-05T00:44:31;0.10;99.90
18934;DHT22;9599;53.706;10.384;2023-02-05T00:46:59;0.10;99.90
18934;DHT22;9599;53.706;10.384;2023-02-05T00:49:27;0.10;99.90
18934;DHT22;9599;53.706;10.384;2023-02-05T00:51:55;0.10;99.90
18934;DHT22;9599;53.706;10.384;2023-02-05T00:54:23;0.10;99.90
18934;DHT22;9599;53.706;10.384;2023-02-05T00:56:52;0.00;99.90
18934;DHT22;9599;53.706;10.384;2023-02-05T00:59:21;0.10;99.90
18934;DHT22;9599;53.706;10.384;2023-02-05T01:01:49;0.00;99.90
18934;DHT22;9599;53.706;10.384;2023-02-05T01:04:19;0.00;99.90
18934;DHT22;9599;53.706;10.384;2023-02-05T01:06:47;0.00;99.90
18934;DHT22;9599;53.706;10.384;2023-02-05T01:09:15;0.10;99.90
18934;DHT22;9599;53.706;10.384;2023-02-05T01:11:43;0.10;99.90
18934;DHT22;9599;53.706;10.384;2023-02-05T01:14:13;0.00;99.90
18934;DHT22;9599;53.706;10.384;2023-02-05T01:16:41;0.00;99.90
18934;DHT22;9599;53.706;10.384;2023-02-05T01:19:10;0.00;99.90
18934;DHT22;9599;53.706;10.384;2023-02-05T01:21:38;0.00;99.90
18934;DHT22;9599;53.706;10.384;2023-02-05T01:24:06;0.00;99.90
18934;DHT22;9599;53.706;10.384;2023-02-05T01:26:33;-0.10;99.90
18934;DHT22;9599;53.706;10.384;2023-02-05T01:29:01;0.00;99.90
18934;DHT22;9599;53.706;10.384;2023-02-05T01:31:31;-0.10;99.90
18934;DHT22;9599;53.706;10.384;2023-02-05T01:33:59;-0.10;99.90
18934;DHT22;9599;53.706;10.384;2023-02-05T01:36:27;-0.10;99.90
18934;DHT22;9599;53.706;10.384;2023-02-05T01:38:55;-0.10;99.90
18934;DHT22;9599;53.706;10.384;2023-02-05T01:41:23;-0.10;99.90
18934;DHT22;9599;53.706;10.384;2023-02-05T01:44:09;-0.10;99.90
18934;DHT22;9599;53.706;10.384;2023-02-05T01:46:39;-0.10;99.90
18934;DHT22;9599;53.706;10.384;2023-02-05T01:49:12;-0.20;99.90
18934;DHT22;9599;53.706;10.384;2023-02-05T01:51:43;-0.20;99.90
18934;DHT22;9599;53.706;10.384;2023-02-05T01:54:12;-0.20;99.90
18934;DHT22;9599;53.706;10.384;2023-02-05T01:56:43;-0.20;99.90
18934;DHT22;9599;53.706;10.384;2023-02-05T01:59:16;-0.20;99.90
18934;DHT22;9599;53.706;10.384;2023-02-05T02:01:47;-0.20;99.90
18934;DHT22;9599;53.706;10.384;2023-02-05T02:04:31;-0.30;99.90
18934;DHT22;9599;53.706;10.384;2023-02-05T02:07:02;-0.30;99.90
18934;DHT22;9599;53.706;10.384;2023-02-05T02:09:30;-0.30;99.90
18934;DHT22;9599;53.706;10.384;2023-02-05T02:11:58;-0.30;99.90
18934;DHT22;9599;53.706;10.384;2023-02-05T02:14:28;-0.30;99.90
18934;DHT22;9599;53.706;10.384;2023-02-05T02:17:01;-0.40;99.90
18934;DHT22;9599;53.706;10.384;2023-02-05T02:19:31;-0.40;99.90
18934;DHT22;9599;53.706;10.384;2023-02-05T02:25:09;-0.30;99.90
18934;DHT22;9599;53.706;10.384;2023-02-05T02:27:44;-0.40;99.90
18934;DHT22;9599;53.706;10.384;2023-02-05T02:30:21;-0.40;99.90
18934;DHT22;9599;53.706;10.384;2023-02-05T02:32:57;-0.40;99.90
18934;DHT22;9599;53.706;10.384;2023-02-05T02:35:38;-0.40;99.90
18934;DHT22;9599;53.706;10.384;2023-02-05T02:38:12;-0.40;99.90
18934;DHT22;9599;53.706;10.384;2023-02-05T02:40:46;-0.40;99.90
18934;DHT22;9599;53.706;10.384;2023-02-05T02:43:21;-0.40;99.90
18934;DHT22;9599;53.706;10.384;2023-02-05T02:45:54;-0.40;99.90
18934;DHT22;9599;53.706;10.384;2023-02-05T02:48:26;-0.40;99.90
18934;DHT22;9599;53.706;10.384;2023-02-05T02:50:57;-0.40;99.90
18934;DHT22;9599;53.706;10.384;2023-02-05T02:53:31;-0.40;99.90
18934;DHT22;9599;53.706;10.384;2023-02-05T02:56:00;-0.40;99.90
18934;DHT22;9599;53.706;10.384;2023-02-05T02:58:37;-0.40;99.90
18934;DHT22;9599;53.706;10.384;2023-02-05T03:01:07;-0.40;99.90
18934;DHT22;9599;53.706;10.384;2023-02-05T03:03:39;-0.30;99.90
18934;DHT22;9599;53.706;10.384;2023-02-05T03:06:09;-0.30;99.90
18934;DHT22;9599;53.706;10.384;2023-02-05T03:08:45;-0.30;99.90
18934;DHT22;9599;53.706;10.384;2023-02-05T03:11:17;-0.30;99.90
18934;DHT22;9599;53.706;10.384;2023-02-05T03:13:47;-0.30;99.90
18934;DHT22;9599;53.706;10.384;2023-02-05T03:16:19;-0.20;99.90
18934;DHT22;9599;53.706;10.384;2023-02-05T03:18:48;-0.20;99.90
18934;DHT22;9599;53.706;10.384;2023-02-05T03:21:18;-0.20;99.90
18934;DHT22;9599;53.706;10.384;2023-02-05T03:23:49;-0.20;99.90
18934;DHT22;9599;53.706;10.384;2023-02-05T03:26:22;-0.20;99.90
18934;DHT22;9599;53.706;10.384;2023-02-05T03:28:56;-0.10;99.90
18934;DHT22;9599;53.706;10.384;2023-02-05T03:31:31;-0.20;99.90
18934;DHT22;9599;53.706;10.384;2023-02-05T03:34:09;-0.10;99.90
18934;DHT22;9599;53.706;10.384;2023-02-05T03:36:51;-0.10;99.90
18934;DHT22;9599;53.706;10.384;2023-02-05T03:39:28;-0.10;99.90
18934;DHT22;9599;53.706;10.384;2023-02-05T03:42:06;-0.10;99.90
18934;DHT22;9599;53.706;10.384;2023-02-05T03:45:02;0.00;99.90
18934;DHT22;9599;53.706;10.384;2023-02-05T03:47:42;0.00;99.90
18934;DHT22;9599;53.706;10.384;2023-02-05T03:50:20;0.00;99.90
18934;DHT22;9599;53.706;10.384;2023-02-05T03:52:54;0.00;99.90
18934;DHT22;9599;53.706;10.384;2023-02-05T03:55:29;-0.10;99.90
18934;DHT22;9599;53.706;10.384;2023-02-05T03:58:07;-0.10;99.90
18934;DHT22;9599;53.706;10.384;2023-02-05T04:00:39;-0.10;99.90
18934;DHT22;9599;53.706;10.384;2023-02-05T04:03:07;-0.10;99.90
18934;DHT22;9599;53.706;10.384;2023-02-05T04:05:36;0.00;99.90
18934;DHT22;9599;53.706;10.384;2023-02-05T04:08:05;0.00;99.90
18934;DHT22;9599;53.706;10.384;2023-02-05T04:10:40;0.00;99.90
18934;DHT22;9599;53.706;10.384;2023-02-05T04:13:08;0.00;99.90
18934;DHT22;9599;53.706;10.384;2023-02-05T04:15:40;0.00;99.90
18934;DHT22;9599;53.706;10.384;2023-02-05T04:18:10;0.00;99.90
18934;DHT22;9599;53.706;10.384;2023-02-05T04:20:38;0.00;99.90
18934;DHT22;9599;53.706;10.384;2023-02-05T04:23:08;0.00;99.90
18934;DHT22;9599;53.706;10.384;2023-02-05T04:25:37;0.00;99.90
18934;DHT22;9599;53.706;10.384;2023-02-05T04:28:08;-0.10;99.90
18934;DHT22;9599;53.706;10.384;2023-02-05T04:30:39;0.00;99.90
18934;DHT22;9599;53.706;10.384;2023-02-05T04:33:09;-0.10;99.90
18934;DHT22;9599;53.706;10.384;2023-02-05T04:35:38;-0.10;99.90
18934;DHT22;9599;53.706;10.384;2023-02-05T04:38:06;-0.10;99.90
18934;DHT22;9599;53.706;10.384;2023-02-05T04:40:34;-0.10;99.90
18934;DHT22;9599;53.706;10.384;2023-02-05T04:43:02;-0.20;99.90
18934;DHT22;9599;53.706;10.384;2023-02-05T04:45:29;-0.10;99.90
18934;DHT22;9599;53.706;10.384;2023-02-05T04:48:00;-0.20;99.90
18934;DHT22;9599;53.706;10.384;2023-02-05T04:50:28;-0.10;99.90
18934;DHT22;9599;53.706;10.384;2023-02-05T04:52:56;-0.20;99.90
18934;DHT22;9599;53.706;10.384;2023-02-05T04:55:24;-0.20;99.90
18934;DHT22;9599;53.706;10.384;2023-02-05T04:57:52;-0.20;99.90
18934;DHT22;9599;53.706;10.384;2023-02-05T05:00:20;-0.20;99.90
18934;DHT22;9599;53.706;10.384;2023-02-05T05:02:48;-0.10;99.90
18934;DHT22;9599;53.706;10.384;2023-02-05T05:05:18;-0.20;99.90
18934;DHT22;9599;53.706;10.384;2023-02-05T05:07:45;-0.20;99.90
18934;DHT22;9599;53.706;10.384;2023-02-05T05:10:14;-0.10;99.90
18934;DHT22;9599;53.706;10.384;2023-02-05T05:12:42;-0.20;99.90
18934;DHT22;9599;53.706;10.384;2023-02-05T05:15:10;-0.20;99.90
18934;DHT22;9599;53.706;10.384;2023-02-05T05:17:38;-0.20;99.90
18934;DHT22;9599;53.706;10.384;2023-02-05T05:20:06;-0.20;99.90
18934;DHT22;9599;53.706;10.384;2023-02-05T05:22:35;-0.20;99.90
18934;DHT22;9599;53.706;10.384;2023-02-05T05:25:04;-0.20;99.90
18934;DHT22;9599;53.706;10.384;2023-02-05T05:27:32;-0.20;99.90
18934;DHT22;9599;53.706;10.384;2023-02-05T05:29:59;-0.20;99.90
18934;DHT22;9599;53.706;10.384;2023-02-05T05:32:27;-0.20;99.90
18934;DHT22;9599;53.706;10.384;2023-02-05T05:34:55;-0.10;99.90
18934;DHT22;9599;53.706;10.384;2023-02-05T05:37:23;-0.10;99.90
18934;DHT22;9599;53.706;10.384;2023-02-05T05:39:52;-0.10;99.90
18934;DHT22;9599;53.706;10.384;2023-02-05T05:42:38;0.00;99.90
18934;DHT22;9599;53.706;10.384;2023-02-05T05:45:38;0.00;99.90
18934;DHT22;9599;53.706;10.384;2023-02-05T05:48:06;0.00;99.90
18934;DHT22;9599;53.706;10.384;2023-02-05T05:50:35;0.00;99.90
18934;DHT22;9599;53.706;10.384;2023-02-05T05:53:03;0.10;99.90
18934;DHT22;9599;53.706;10.384;2023-02-05T05:55:33;0.10;99.90
18934;DHT22;9599;53.706;10.384;2023-02-05T05:58:01;0.10;99.90
18934;DHT22;9599;53.706;10.384;2023-02-05T06:00:29;0.10;99.90
18934;DHT22;9599;53.706;10.384;2023-02-05T06:02:57;0.10;99.90
18934;DHT22;9599;53.706;10.384;2023-02-05T06:05:25;0.20;99.90
18934;DHT22;9599;53.706;10.384;2023-02-05T06:07:54;0.20;99.90
18934;DHT22;9599;53.706;10.384;2023-02-05T06:10:22;0.20;99.90
18934;DHT22;9599;53.706;10.384;2023-02-05T06:12:52;0.20;99.90
18934;DHT22;9599;53.706;10.384;2023-02-05T06:15:21;0.20;99.90
18934;DHT22;9599;53.706;10.384;2023-02-05T06:17:49;0.20;99.90
18934;DHT22;9599;53.706;10.384;2023-02-05T06:20:17;0.20;99.90
18934;DHT22;9599;53.706;10.384;2023-02-05T06:22:45;0.30;99.90
18934;DHT22;9599;53.706;10.384;2023-02-05T06:25:13;0.30;99.90
18934;DHT22;9599;53.706;10.384;2023-02-05T06:27:42;0.30;99.90
18934;DHT22;9599;53.706;10.384;2023-02-05T06:30:12;0.30;99.90
18934;DHT22;9599;53.706;10.384;2023-02-05T06:32:40;0.30;99.90
18934;DHT22;9599;53.706;10.384;2023-02-05T06:35:08;0.20;99.90
18934;DHT22;9599;53.706;10.384;2023-02-05T06:37:36;0.30;99.90
18934;DHT22;9599;53.706;10.384;2023-02-05T06:40:13;0.30;99.90
18934;DHT22;9599;53.706;10.384;2023-02-05T06:42:43;0.30;99.90
18934;DHT22;9599;53.706;10.384;2023-02-05T06:45:13;0.30;99.90
18934;DHT22;9599;53.706;10.384;2023-02-05T06:47:40;0.30;99.90
18934;DHT22;9599;53.706;10.384;2023-02-05T06:50:09;0.40;99.90
18934;DHT22;9599;53.706;10.384;2023-02-05T06:52:36;0.40;99.90
18934;DHT22;9599;53.706;10.384;2023-02-05T06:55:05;0.40;99.90
18934;DHT22;9599;53.706;10.384;2023-02-05T06:57:33;0.40;99.90
18934;DHT22;9599;53.706;10.384;2023-02-05T07:00:01;0.40;99.90
18934;DHT22;9599;53.706;10.384;2023-02-05T07:02:30;0.50;99.90
18934;DHT22;9599;53.706;10.384;2023-02-05T07:04:58;0.50;99.90
18934;DHT22;9599;53.706;10.384;2023-02-05T07:07:26;0.40;99.90
18934;DHT22;9599;53.706;10.384;2023-02-05T07:09:54;0.50;99.90
18934;DHT22;9599;53.706;10.384;2023-02-05T07:12:22;0.50;99.90
18934;DHT22;9599;53.706;10.384;2023-02-05T07:14:50;0.50;99.90
18934;DHT22;9599;53.706;10.384;2023-02-05T07:17:18;0.50;99.90
18934;DHT22;9599;53.706;10.384;2023-02-05T07:19:47;0.50;99.90
18934;DHT22;9599;53.706;10.384;2023-02-05T07:22:15;0.50;99.90
18934;DHT22;9599;53.706;10.384;2023-02-05T07:24:43;0.60;99.90
18934;DHT22;9599;53.706;10.384;2023-02-05T07:27:11;0.60;99.90
18934;DHT22;9599;53.706;10.384;2023-02-05T07:29:39;0.50;99.90
18934;DHT22;9599;53.706;10.384;2023-02-05T07:32:07;0.50;99.90
18934;DHT22;9599;53.706;10.384;2023-02-05T07:34:35;0.50;99.90
18934;DHT22;9599;53.706;10.384;2023-02-05T07:37:04;0.50;99.90
18934;DHT22;9599;53.706;10.384;2023-02-05T07:39:32;0.50;99.90
18934;DHT22;9599;53.706;10.384;2023-02-05T07:42:01;0.50;99.90
18934;DHT22;9599;53.706;10.384;2023-02-05T07:44:37;0.60;99.90
18934;DHT22;9599;53.706;10.384;2023-02-05T07:47:05;0.60;99.90
18934;DHT22;9599;53.706;10.384;2023-02-05T07:49:32;0.60;99.90
18934;DHT22;9599;53.706;10.384;2023-02-05T07:52:01;0.60;99.90
18934;DHT22;9599;53.706;10.384;2023-02-05T07:54:30;0.70;99.90
18934;DHT22;9599;53.706;10.384;2023-02-05T07:56:58;0.70;99.90
18934;DHT22;9599;53.706;10.384;2023-02-05T07:59:28;0.70;99.90
18934;DHT22;9599;53.706;10.384;2023-02-05T08:01:56;0.70;99.90
18934;DHT22;9599;53.706;10.384;2023-02-05T08:04:24;0.70;99.90
18934;DHT22;9599;53.706;10.384;2023-02-05T08:06:52;0.70;99.90
18934;DHT22;9599;53.706;10.384;2023-02-05T08:09:20;0.80;99.90
18934;DHT22;9599;53.706;10.384;2023-02-05T08:11:49;0.80;99.90
18934;DHT22;9599;53.706;10.384;2023-02-05T08:14:18;0.80;99.90
18934;DHT22;9599;53.706;10.384;2023-02-05T08:16:46;0.80;99.90
18934;DHT22;9599;53.706;10.384;2023-02-05T08:19:15;0.80;99.90
18934;DHT22;9599;53.706;10.384;2023-02-05T08:21:44;0.80;99.90
18934;DHT22;9599;53.706;10.384;2023-02-05T08:24:12;0.90;99.90
18934;DHT22;9599;53.706;10.384;2023-02-05T08:26:41;0.90;99.90
18934;DHT22;9599;53.706;10.384;2023-02-05T08:29:10;0.90;99.90
18934;DHT22;9599;53.706;10.384;2023-02-05T08:31:38;1.00;99.90
18934;DHT22;9599;53.706;10.384;2023-02-05T08:34:06;1.00;99.90
18934;DHT22;9599;53.706;10.384;2023-02-05T08:36:34;1.00;99.90
18934;DHT22;9599;53.706;10.384;2023-02-05T08:39:03;1.00;99.90
18934;DHT22;9599;53.706;10.384;2023-02-05T08:41:31;1.10;99.90
18934;DHT22;9599;53.706;10.384;2023-02-05T08:43:58;1.10;99.90
18934;DHT22;9599;53.706;10.384;2023-02-05T08:46:28;1.10;99.90
18934;DHT22;9599;53.706;10.384;2023-02-05T08:49:14;1.20;99.90
18934;DHT22;9599;53.706;10.384;2023-02-05T08:51:42;1.20;99.90
18934;DHT22;9599;53.706;10.384;2023-02-05T08:54:11;1.20;99.90
18934;DHT22;9599;53.706;10.384;2023-02-05T08:56:42;1.20;99.90
18934;DHT22;9599;53.706;10.384;2023-02-05T08:59:11;1.30;99.90
18934;DHT22;9599;53.706;10.384;2023-02-05T09:01:41;1.30;99.90
18934;DHT22;9599;53.706;10.384;2023-02-05T09:04:11;1.40;99.90
18934;DHT22;9599;53.706;10.384;2023-02-05T09:06:40;1.40;99.90
18934;DHT22;9599;53.706;10.384;2023-02-05T09:09:08;1.40;99.90
18934;DHT22;9599;53.706;10.384;2023-02-05T09:11:37;1.50;99.90
18934;DHT22;9599;53.706;10.384;2023-02-05T09:14:04;1.50;99.90
18934;DHT22;9599;53.706;10.384;2023-02-05T09:16:32;1.60;99.90
18934;DHT22;9599;53.706;10.384;2023-02-05T09:19:02;1.60;99.90
18934;DHT22;9599;53.706;10.384;2023-02-05T09:21:30;1.70;99.90
18934;DHT22;9599;53.706;10.384;2023-02-05T09:23:57;1.80;99.90
18934;DHT22;9599;53.706;10.384;2023-02-05T09:26:25;1.80;99.90
18934;DHT22;9599;53.706;10.384;2023-02-05T09:28:53;1.80;99.90
18934;DHT22;9599;53.706;10.384;2023-02-05T09:31:21;1.80;99.90
18934;DHT22;9599;53.706;10.384;2023-02-05T09:33:49;1.90;99.90
18934;DHT22;9599;53.706;10.384;2023-02-05T09:36:20;1.90;99.90
18934;DHT22;9599;53.706;10.384;2023-02-05T09:38:48;2.00;99.90
18934;DHT22;9599;53.706;10.384;2023-02-05T09:41:36;2.00;99.90
18934;DHT22;9599;53.706;10.384;2023-02-05T09:44:14;2.10;99.90
18934;DHT22;9599;53.706;10.384;2023-02-05T09:46:50;2.10;99.90
18934;DHT22;9599;53.706;10.384;2023-02-05T09:49:23;2.10;99.90
18934;DHT22;9599;53.706;10.384;2023-02-05T09:52:01;2.10;99.90
18934;DHT22;9599;53.706;10.384;2023-02-05T09:54:32;2.10;99.90
18934;DHT22;9599;53.706;10.384;2023-02-05T09:57:04;2.20;99.90
18934;DHT22;9599;53.706;10.384;2023-02-05T09:59:34;2.20;99.90
18934;DHT22;9599;53.706;10.384;2023-02-05T10:02:18;2.30;99.90
18934;DHT22;9599;53.706;10.384;2023-02-05T10:04:50;2.30;99.90
18934;DHT22;9599;53.706;10.384;2023-02-05T10:07:24;2.40;99.90
18934;DHT22;9599;53.706;10.384;2023-02-05T10:10:18;2.40;99.90
18934;DHT22;9599;53.706;10.384;2023-02-05T10:16:31;2.60;99.90
18934;DHT22;9599;53.706;10.384;2023-02-05T10:22:13;2.70;99.90
18934;DHT22;9599;53.706;10.384;2023-02-05T10:25:03;2.70;99.90
18934;DHT22;9599;53.706;10.384;2023-02-05T10:27:38;2.80;99.90
18934;DHT22;9599;53.706;10.384;2023-02-05T10:30:15;2.80;99.90
18934;DHT22;9599;53.706;10.384;2023-02-05T10:32:54;2.90;99.90
18934;DHT22;9599;53.706;10.384;2023-02-05T10:35:26;2.90;99.90
18934;DHT22;9599;53.706;10.384;2023-02-05T10:37:57;2.90;99.90
18934;DHT22;9599;53.706;10.384;2023-02-05T10:40:28;3.00;99.90
18934;DHT22;9599;53.706;10.384;2023-02-05T10:43:01;3.00;99.90
18934;DHT22;9599;53.706;10.384;2023-02-05T10:45:31;3.10;99.90
18934;DHT22;9599;53.706;10.384;2023-02-05T10:48:06;3.00;99.90
18934;DHT22;9599;53.706;10.384;2023-02-05T10:50:47;3.00;99.90
18934;DHT22;9599;53.706;10.384;2023-02-05T10:53:18;3.10;99.90
18934;DHT22;9599;53.706;10.384;2023-02-05T10:55:48;3.20;99.90
18934;DHT22;9599;53.706;10.384;2023-02-05T10:58:30;3.30;99.90
18934;DHT22;9599;53.706;10.384;2023-02-05T11:01:04;3.30;99.90
18934;DHT22;9599;53.706;10.384;2023-02-05T11:03:32;3.40;99.90
18934;DHT22;9599;53.706;10.384;2023-02-05T11:06:02;3.40;99.90
18934;DHT22;9599;53.706;10.384;2023-02-05T11:08:36;3.50;99.90
18934;DHT22;9599;53.706;10.384;2023-02-05T11:11:06;3.40;99.90
18934;DHT22;9599;53.706;10.384;2023-02-05T11:13:49;3.50;99.90
18934;DHT22;9599;53.706;10.384;2023-02-05T11:16:18;3.60;99.90
18934;DHT22;9599;53.706;10.384;2023-02-05T11:18:55;3.60;99.90
18934;DHT22;9599;53.706;10.384;2023-02-05T11:21:45;3.80;99.90
18934;DHT22;9599;53.706;10.384;2023-02-05T11:24:26;3.80;99.90
18934;DHT22;9599;53.706;10.384;2023-02-05T11:27:24;3.90;99.90
18934;DHT22;9599;53.706;10.384;2023-02-05T11:29:54;3.90;99.90
18934;DHT22;9599;53.706;10.384;2023-02-05T11:32:31;3.90;99.90
18934;DHT22;9599;53.706;10.384;2023-02-05T11:35:21;3.80;99.90
18934;DHT22;9599;53.706;10.384;2023-02-05T11:37:58;3.70;99.90
18934;DHT22;9599;53.706;10.384;2023-02-05T11:40:29;3.60;99.90
18934;DHT22;9599;53.706;10.384;2023-02-05T11:43:04;3.60;99.90
18934;DHT22;9599;53.706;10.384;2023-02-05T11:45:36;3.70;99.90
18934;DHT22;9599;53.706;10.384;2023-02-05T11:48:06;3.70;99.90
18934;DHT22;9599;53.706;10.384;2023-02-05T11:50:49;3.80;99.90
18934;DHT22;9599;53.706;10.384;2023-02-05T11:53:19;3.80;99.90
18934;DHT22;9599;53.706;10.384;2023-02-05T11:55:52;3.90;99.90
18934;DHT22;9599;53.706;10.384;2023-02-05T11:58:25;4.00;99.90
18934;DHT22;9599;53.706;10.384;2023-02-05T12:01:05;3.90;99.90
18934;DHT22;9599;53.706;10.384;2023-02-05T12:03:34;3.90;99.90
18934;DHT22;9599;53.706;10.384;2023-02-05T12:06:10;4.00;99.90
18934;DHT22;9599;53.706;10.384;2023-02-05T12:08:44;4.00;99.90
18934;DHT22;9599;53.706;10.384;2023-02-05T12:11:37;4.00;99.90
18934;DHT22;9599;53.706;10.384;2023-02-05T12:14:30;4.00;99.90
18934;DHT22;9599;53.706;10.384;2023-02-05T12:17:06;3.90;99.90
18934;DHT22;9599;53.706;10.384;2023-02-05T12:19:48;4.00;99.90
18934;DHT22;9599;53.706;10.384;2023-02-05T12:22:27;4.00;99.90
18934;DHT22;9599;53.706;10.384;2023-02-05T12:25:09;3.90;99.90
18934;DHT22;9599;53.706;10.384;2023-02-05T12:27:59;3.80;99.90
18934;DHT22;9599;53.706;10.384;2023-02-05T12:30:40;3.80;99.90
18934;DHT22;9599;53.706;10.384;2023-02-05T12:33:26;4.00;99.90
18934;DHT22;9599;53.706;10.384;2023-02-05T12:36:07;4.00;99.90
18934;DHT22;9599;53.706;10.384;2023-02-05T12:38:48;4.30;99.90
18934;DHT22;9599;53.706;10.384;2023-02-05T12:41:29;4.50;99.90
18934;DHT22;9599;53.706;10.384;2023-02-05T12:44:07;4.60;99.90
18934;DHT22;9599;53.706;10.384;2023-02-05T12:46:50;4.60;99.90
18934;DHT22;9599;53.706;10.384;2023-02-05T12:49:32;4.50;99.90
18934;DHT22;9599;53.706;10.384;2023-02-05T12:52:17;4.30;99.90
18934;DHT22;9599;53.706;10.384;2023-02-05T12:54:55;4.30;99.90
18934;DHT22;9599;53.706;10.384;2023-02-05T12:57:35;4.40;99.90
18934;DHT22;9599;53.706;10.384;2023-02-05T13:00:09;4.40;99.90
18934;DHT22;9599;53.706;10.384;2023-02-05T13:02:46;4.40;99.90
18934;DHT22;9599;53.706;10.384;2023-02-05T13:05:19;4.50;99.90
18934;DHT22;9599;53.706;10.384;2023-02-05T13:07:52;4.50;99.90
18934;DHT22;9599;53.706;10.384;2023-02-05T13:10:26;4.50;99.90
18934;DHT22;9599;53.706;10.384;2023-02-05T13:12:59;4.50;99.90
18934;DHT22;9599;53.706;10.384;2023-02-05T13:15:33;4.60;99.90
18934;DHT22;9599;53.706;10.384;2023-02-05T13:18:09;4.70;99.90
18934;DHT22;9599;53.706;10.384;2023-02-05T13:20:41;4.70;99.90
18934;DHT22;9599;53.706;10.384;2023-02-05T13:23:27;4.80;99.90
18934;DHT22;9599;53.706;10.384;2023-02-05T13:26:15;4.80;99.90
18934;DHT22;9599;53.706;10.384;2023-02-05T13:29:05;4.70;99.90
18934;DHT22;9599;53.706;10.384;2023-02-05T13:31:36;4.60;99.90
18934;DHT22;9599;53.706;10.384;2023-02-05T13:34:07;4.60;99.90
18934;DHT22;9599;53.706;10.384;2023-02-05T13:40:06;4.70;99.90
18934;DHT22;9599;53.706;10.384;2023-02-05T13:42:53;4.50;99.90
18934;DHT22;9599;53.706;10.384;2023-02-05T13:45:38;4.50;99.90
18934;DHT22;9599;53.706;10.384;2023-02-05T13:48:37;4.50;99.90
18934;DHT22;9599;53.706;10.384;2023-02-05T13:51:28;4.60;99.90
18934;DHT22;9599;53.706;10.384;2023-02-05T13:54:42;4.50;99.90
18934;DHT22;9599;53.706;10.384;2023-02-05T13:57:57;4.50;99.90
18934;DHT22;9599;53.706;10.384;2023-02-05T14:00:25;4.60;99.90
18934;DHT22;9599;53.706;10.384;2023-02-05T14:02:55;4.60;99.90
18934;DHT22;9599;53.706;10.384;2023-02-05T14:05:27;4.60;99.90
18934;DHT22;9599;53.706;10.384;2023-02-05T14:07:57;4.50;99.90
18934;DHT22;9599;53.706;10.384;2023-02-05T14:10:30;4.50;99.90
18934;DHT22;9599;53.706;10.384;2023-02-05T14:13:10;4.50;99.90
18934;DHT22;9599;53.706;10.384;2023-02-05T14:15:40;4.40;99.90
18934;DHT22;9599;53.706;10.384;2023-02-05T14:18:09;4.20;99.90
18934;DHT22;9599;53.706;10.384;2023-02-05T14:20:39;4.10;99.90
18934;DHT22;9599;53.706;10.384;2023-02-05T14:23:14;4.00;99.90
18934;DHT22;9599;53.706;10.384;2023-02-05T14:26:08;3.90;99.90
18934;DHT22;9599;53.706;10.384;2023-02-05T14:28:48;4.00;99.90
18934;DHT22;9599;53.706;10.384;2023-02-05T14:31:45;4.00;99.90
18934;DHT22;9599;53.706;10.384;2023-02-05T14:34:32;4.20;99.90
18934;DHT22;9599;53.706;10.384;2023-02-05T14:37:24;4.20;99.90
18934;DHT22;9599;53.706;10.384;2023-02-05T14:39:53;4.10;99.90
18934;DHT22;9599;53.706;10.384;2023-02-05T14:42:22;4.00;99.90
18934;DHT22;9599;53.706;10.384;2023-02-05T14:44:55;4.10;99.90
18934;DHT22;9599;53.706;10.384;2023-02-05T14:47:26;4.10;99.90
18934;DHT22;9599;53.706;10.384;2023-02-05T14:50:02;4.20;99.90
18934;DHT22;9599;53.706;10.384;2023-02-05T14:52:33;4.30;99.90
18934;DHT22;9599;53.706;10.384;2023-02-05T14:55:05;4.20;99.90
18934;DHT22;9599;53.706;10.384;2023-02-05T14:57:41;4.20;99.90
18934;DHT22;9599;53.706;10.384;2023-02-05T15:00:31;4.20;99.90
18934;DHT22;9599;53.706;10.384;2023-02-05T15:03:22;4.20;99.90
18934;DHT22;9599;53.706;10.384;2023-02-05T15:05:54;4.20;99.90
18934;DHT22;9599;53.706;10.384;2023-02-05T15:08:44;4.30;99.90
18934;DHT22;9599;53.706;10.384;2023-02-05T15:11:20;4.30;99.90
18934;DHT22;9599;53.706;10.384;2023-02-05T15:14:25;4.30;99.90
18934;DHT22;9599;53.706;10.384;2023-02-05T15:20:19;4.20;99.90
18934;DHT22;9599;53.706;10.384;2023-02-05T15:22:51;4.10;99.90
18934;DHT22;9599;53.706;10.384;2023-02-05T15:25:29;4.00;99.90
18934;DHT22;9599;53.706;10.384;2023-02-05T15:28:01;4.00;99.90
18934;DHT22;9599;53.706;10.384;2023-02-05T15:30:46;4.10;99.90
18934;DHT22;9599;53.706;10.384;2023-02-05T15:33:26;4.10;99.90
18934;DHT22;9599;53.706;10.384;2023-02-05T15:35:55;4.10;99.90
18934;DHT22;9599;53.706;10.384;2023-02-05T15:38:31;4.00;99.90
18934;DHT22;9599;53.706;10.384;2023-02-05T15:41:04;4.00;99.90
18934;DHT22;9599;53.706;10.384;2023-02-05T15:43:33;4.00;99.90
18934;DHT22;9599;53.706;10.384;2023-02-05T15:46:04;4.00;99.90
18934;DHT22;9599;53.706;10.384;2023-02-05T15:48:34;4.00;99.90
18934;DHT22;9599;53.706;10.384;2023-02-05T15:51:12;3.90;99.90
18934;DHT22;9599;53.706;10.384;2023-02-05T15:53:46;3.90;99.90
18934;DHT22;9599;53.706;10.384;2023-02-05T15:56:21;3.90;99.90
18934;DHT22;9599;53.706;10.384;2023-02-05T15:58:52;3.90;99.90
18934;DHT22;9599;53.706;10.384;2023-02-05T16:01:28;3.90;99.90
18934;DHT22;9599;53.706;10.384;2023-02-05T16:03:56;3.80;99.90
18934;DHT22;9599;53.706;10.384;2023-02-05T16:06:26;3.80;99.90
18934;DHT22;9599;53.706;10.384;2023-02-05T16:08:55;3.80;99.90
18934;DHT22;9599;53.706;10.384;2023-02-05T16:11:28;3.80;99.90
18934;DHT22;9599;53.706;10.384;2023-02-05T16:14:05;3.80;99.90
18934;DHT22;9599;53.706;10.384;2023-02-05T16:16:37;3.80;99.90
18934;DHT22;9599;53.706;10.384;2023-02-05T16:19:14;3.70;99.90
18934;DHT22;9599;53.706;10.384;2023-02-05T16:21:45;3.70;99.90
18934;DHT22;9599;53.706;10.384;2023-02-05T16:24:23;3.70;99.90
18934;DHT22;9599;53.706;10.384;2023-02-05T16:26:56;3.80;99.90
18934;DHT22;9599;53.706;10.384;2023-02-05T16:29:29;3.70;99.90
18934;DHT22;9599;53.706;10.384;2023-02-05T16:32:24;3.70;99.90
18934;DHT22;9599;53.706;10.384;2023-02-05T16:34:54;3.70;99.90